sensor_id;sensor_type;location;lat;lon;timestamp;temperature;humidity
11536;DHT22;5824;49.336;8.652;2022-11-20T00:01:12;4.70;99.90
11536;DHT22;5824;49.336;8.652;2022-11-20T00:03:38;4.70;99.90
11536;DHT22;5824;49.336;8.652;2022-11-20T00:06:06;4.70;99.90
11536;DHT22;5824;49.336;8.652;2022-11-20T00:08:32;4.70;99.90
11536;DHT22;5824;49.336;8.652;2022-11-20T00:11:01;4.70;99.90
11536;DHT22;5824;49.336;8.652;2022-11-20T00:13:27;4.70;99.90
11536;DHT22;5824;49.336;8.652;2022-11-20T00:16:00;4.80;99.90
11536;DHT22;5824;49.336;8.652;2022-11-20T00:18:26;4.70;99.90
11536;DHT22;5824;49.336;8.652;2022-11-20T00:20:52;4.70;99.90
11536;DHT22;5824;49.336;8.652;2022-11-20T00:23:18;4.80;99.90
11536;DHT22;5824;49.336;8.652;2022-11-20T00:25:43;4.80;99.90
11536;DHT22;5824;49.336;8.652;2022-11-20T00:28:09;4.70;99.90
11536;DHT22;5824;49.336;8.652;2022-11-20T00:30:35;4.70;99.90
11536;DHT22;5824;49.336;8.652;2022-11-20T00:33:00;4.80;99.90
11536;DHT22;5824;49.336;8.652;2022-11-20T00:35:25;4.80;99.90
11536;DHT22;5824;49.336;8.652;2022-11-20T00:37:51;4.80;99.90
11536;DHT22;5824;49.336;8.652;2022-11-20T00:40:16;4.90;99.90
11536;DHT22;5824;49.336;8.652;2022-11-20T00:42:42;4.80;99.90
11536;DHT22;5824;49.336;8.652;2022-11-20T00:45:08;4.80;99.90
11536;DHT22;5824;49.336;8.652;2022-11-20T00:47:33;4.80;99.90
11536;DHT22;5824;49.336;8.652;2022-11-20T00:49:59;4.90;99.90
11536;DHT22;5824;49.336;8.652;2022-11-20T00:52:24;4.90;99.90
11536;DHT22;5824;49.336;8.652;2022-11-20T00:54:50;4.90;99.90
11536;DHT22;5824;49.336;8.652;2022-11-20T00:57:15;4.90;99.90
11536;DHT22;5824;49.336;8.652;2022-11-20T00:59:41;4.80;99.90
11536;DHT22;5824;49.336;8.652;2022-11-20T01:02:06;4.80;99.90
11536;DHT22;5824;49.336;8.652;2022-11-20T01:04:32;4.80;99.90
11536;DHT22;5824;49.336;8.652;2022-11-20T01:06:57;4.80;99.90
11536;DHT22;5824;49.336;8.652;2022-11-20T01:09:23;4.80;99.90
11536;DHT22;5824;49.336;8.652;2022-11-20T01:11:48;4.90;99.90
11536;DHT22;5824;49.336;8.652;2022-11-20T01:14:16;4.90;99.90
11536;DHT22;5824;49.336;8.652;2022-11-20T01:16:47;4.90;99.90
11536;DHT22;5824;49.336;8.652;2022-11-20T01:19:16;4.90;99.90
11536;DHT22;5824;49.336;8.652;2022-11-20T01:21:43;4.90;99.90
11536;DHT22;5824;49.336;8.652;2022-11-20T01:24:14;5.00;99.90
11536;DHT22;5824;49.336;8.652;2022-11-20T01:26:42;5.00;99.90
11536;DHT22;5824;49.336;8.652;2022-11-20T01:29:14;5.00;99.90
11536;DHT22;5824;49.336;8.652;2022-11-20T01:31:39;4.90;99.90
11536;DHT22;5824;49.336;8.652;2022-11-20T01:34:08;5.00;99.90
11536;DHT22;5824;49.336;8.652;2022-11-20T01:36:35;5.00;99.90
11536;DHT22;5824;49.336;8.652;2022-11-20T01:39:04;5.00;99.90
11536;DHT22;5824;49.336;8.652;2022-11-20T01:41:31;5.10;99.90
11536;DHT22;5824;49.336;8.652;2022-11-20T01:44:39;5.10;99.90
11536;DHT22;5824;49.336;8.652;2022-11-20T01:47:08;5.00;99.90
11536;DHT22;5824;49.336;8.652;2022-11-20T01:49:38;5.00;99.90
11536;DHT22;5824;49.336;8.652;2022-11-20T01:52:33;5.10;99.90
11536;DHT22;5824;49.336;8.652;2022-11-20T01:55:10;5.20;99.90
11536;DHT22;5824;49.336;8.652;2022-11-20T01:57:38;5.20;99.90
11536;DHT22;5824;49.336;8.652;2022-11-20T02:00:11;5.10;99.90
11536;DHT22;5824;49.336;8.652;2022-11-20T02:02:38;5.10;99.90
11536;DHT22;5824;49.336;8.652;2022-11-20T02:05:16;5.10;99.90
11536;DHT22;5824;49.336;8.652;2022-11-20T02:07:43;5.10;99.90
11536;DHT22;5824;49.336;8.652;2022-11-20T02:10:09;5.20;99.90
11536;DHT22;5824;49.336;8.652;2022-11-20T02:12:34;5.20;99.90
11536;DHT22;5824;49.336;8.652;2022-11-20T02:15:18;5.10;99.90
11536;DHT22;5824;49.336;8.652;2022-11-20T02:17:44;5.20;99.90
11536;DHT22;5824;49.336;8.652;2022-11-20T02:20:10;5.20;99.90
11536;DHT22;5824;49.336;8.652;2022-11-20T02:22:43;5.30;99.90
11536;DHT22;5824;49.336;8.652;2022-11-20T02:25:12;5.30;99.90
11536;DHT22;5824;49.336;8.652;2022-11-20T02:27:37;5.30;99.90
11536;DHT22;5824;49.336;8.652;2022-11-20T02:30:05;5.20;99.90
11536;DHT22;5824;49.336;8.652;2022-11-20T02:32:36;5.30;99.90
11536;DHT22;5824;49.336;8.652;2022-11-20T02:37:43;5.20;99.90
11536;DHT22;5824;49.336;8.652;2022-11-20T02:40:10;5.30;99.90
11536;DHT22;5824;49.336;8.652;2022-11-20T02:42:36;5.30;99.90
11536;DHT22;5824;49.336;8.652;2022-11-20T02:45:04;5.30;99.90
11536;DHT22;5824;49.336;8.652;2022-11-20T02:47:29;5.30;99.90
11536;DHT22;5824;49.336;8.652;2022-11-20T02:52:21;5.40;99.90
11536;DHT22;5824;49.336;8.652;2022-11-20T02:54:46;5.40;99.90
11536;DHT22;5824;49.336;8.652;2022-11-20T02:57:12;5.40;99.90
11536;DHT22;5824;49.336;8.652;2022-11-20T02:59:37;5.30;99.90
11536;DHT22;5824;49.336;8.652;2022-11-20T03:02:03;5.40;99.90
11536;DHT22;5824;49.336;8.652;2022-11-20T03:06:54;5.40;99.90
11536;DHT22;5824;49.336;8.652;2022-11-20T03:09:20;5.30;99.90
11536;DHT22;5824;49.336;8.652;2022-11-20T03:11:45;5.40;99.90
11536;DHT22;5824;49.336;8.652;2022-11-20T03:14:11;5.40;99.90
11536;DHT22;5824;49.336;8.652;2022-11-20T03:16:36;5.40;99.90
11536;DHT22;5824;49.336;8.652;2022-11-20T03:19:02;5.40;99.90
11536;DHT22;5824;49.336;8.652;2022-11-20T03:21:27;5.50;99.90
11536;DHT22;5824;49.336;8.652;2022-11-20T03:23:54;5.60;99.90
11536;DHT22;5824;49.336;8.652;2022-11-20T03:26:22;5.60;99.90
11536;DHT22;5824;49.336;8.652;2022-11-20T03:28:53;5.60;99.90
11536;DHT22;5824;49.336;8.652;2022-11-20T03:31:21;5.60;99.90
11536;DHT22;5824;49.336;8.652;2022-11-20T03:33:47;5.70;99.90
11536;DHT22;5824;49.336;8.652;2022-11-20T03:36:14;5.70;99.90
11536;DHT22;5824;49.336;8.652;2022-11-20T03:38:41;5.60;99.90
11536;DHT22;5824;49.336;8.652;2022-11-20T03:41:09;5.70;99.90
11536;DHT22;5824;49.336;8.652;2022-11-20T03:43:35;5.80;99.90
11536;DHT22;5824;49.336;8.652;2022-11-20T03:46:01;5.80;99.90
11536;DHT22;5824;49.336;8.652;2022-11-20T03:48:27;5.80;99.90
11536;DHT22;5824;49.336;8.652;2022-11-20T03:51:06;5.90;99.90
11536;DHT22;5824;49.336;8.652;2022-11-20T03:53:31;5.90;99.90
11536;DHT22;5824;49.336;8.652;2022-11-20T03:55:57;5.90;99.90
11536;DHT22;5824;49.336;8.652;2022-11-20T03:58:22;5.80;99.90
11536;DHT22;5824;49.336;8.652;2022-11-20T04:00:48;5.80;99.90
11536;DHT22;5824;49.336;8.652;2022-11-20T04:03:13;5.80;99.90
11536;DHT22;5824;49.336;8.652;2022-11-20T04:05:39;5.80;99.90
11536;DHT22;5824;49.336;8.652;2022-11-20T04:08:05;5.70;99.90
11536;DHT22;5824;49.336;8.652;2022-11-20T04:10:30;5.70;99.90
11536;DHT22;5824;49.336;8.652;2022-11-20T04:15:22;5.80;99.90
11536;DHT22;5824;49.336;8.652;2022-11-20T04:17:47;5.80;99.90
11536;DHT22;5824;49.336;8.652;2022-11-20T04:20:13;5.80;99.90
11536;DHT22;5824;49.336;8.652;2022-11-20T04:22:38;5.90;99.90
11536;DHT22;5824;49.336;8.652;2022-11-20T04:25:04;5.90;99.90
11536;DHT22;5824;49.336;8.652;2022-11-20T04:27:30;6.00;99.90
11536;DHT22;5824;49.336;8.652;2022-11-20T04:29:56;6.00;99.90
11536;DHT22;5824;49.336;8.652;2022-11-20T04:32:22;6.00;99.90
11536;DHT22;5824;49.336;8.652;2022-11-20T04:34:47;6.00;99.90
11536;DHT22;5824;49.336;8.652;2022-11-20T04:37:13;6.00;99.90
11536;DHT22;5824;49.336;8.652;2022-11-20T04:39:38;6.10;99.90
11536;DHT22;5824;49.336;8.652;2022-11-20T04:42:04;6.10;99.90
11536;DHT22;5824;49.336;8.652;2022-11-20T04:44:48;6.10;99.90
11536;DHT22;5824;49.336;8.652;2022-11-20T04:47:14;6.10;99.90
11536;DHT22;5824;49.336;8.652;2022-11-20T04:49:39;6.10;99.90
11536;DHT22;5824;49.336;8.652;2022-11-20T04:52:05;6.20;99.90
11536;DHT22;5824;49.336;8.652;2022-11-20T04:54:30;6.20;99.90
11536;DHT22;5824;49.336;8.652;2022-11-20T04:56:56;6.20;99.90
11536;DHT22;5824;49.336;8.652;2022-11-20T04:59:22;6.30;99.90
11536;DHT22;5824;49.336;8.652;2022-11-20T05:01:47;6.20;99.90
11536;DHT22;5824;49.336;8.652;2022-11-20T05:04:13;6.20;99.90
11536;DHT22;5824;49.336;8.652;2022-11-20T05:06:38;6.20;99.90
11536;DHT22;5824;49.336;8.652;2022-11-20T05:09:04;6.20;99.90
11536;DHT22;5824;49.336;8.652;2022-11-20T05:11:29;6.30;99.90
11536;DHT22;5824;49.336;8.652;2022-11-20T05:13:58;6.20;99.90
11536;DHT22;5824;49.336;8.652;2022-11-20T05:16:24;6.20;99.90
11536;DHT22;5824;49.336;8.652;2022-11-20T05:18:51;6.20;99.90
11536;DHT22;5824;49.336;8.652;2022-11-20T05:21:17;6.20;99.90
11536;DHT22;5824;49.336;8.652;2022-11-20T05:23:44;6.20;99.90
11536;DHT22;5824;49.336;8.652;2022-11-20T05:26:15;6.20;99.90
11536;DHT22;5824;49.336;8.652;2022-11-20T05:28:41;6.20;99.90
11536;DHT22;5824;49.336;8.652;2022-11-20T05:31:12;6.20;99.90
11536;DHT22;5824;49.336;8.652;2022-11-20T05:33:42;6.20;99.90
11536;DHT22;5824;49.336;8.652;2022-11-20T05:36:09;6.20;99.90
11536;DHT22;5824;49.336;8.652;2022-11-20T05:38:35;6.20;99.90
11536;DHT22;5824;49.336;8.652;2022-11-20T05:41:09;6.20;99.90
11536;DHT22;5824;49.336;8.652;2022-11-20T05:43:36;6.20;99.90
11536;DHT22;5824;49.336;8.652;2022-11-20T05:46:03;6.20;99.90
11536;DHT22;5824;49.336;8.652;2022-11-20T05:48:30;6.20;99.90
11536;DHT22;5824;49.336;8.652;2022-11-20T05:50:57;6.10;99.90
11536;DHT22;5824;49.336;8.652;2022-11-20T05:53:23;6.10;99.90
11536;DHT22;5824;49.336;8.652;2022-11-20T05:56:06;6.00;99.90
11536;DHT22;5824;49.336;8.652;2022-11-20T05:58:32;6.10;99.90
11536;DHT22;5824;49.336;8.652;2022-11-20T06:01:14;6.20;99.90
11536;DHT22;5824;49.336;8.652;2022-11-20T06:03:41;6.30;99.90
11536;DHT22;5824;49.336;8.652;2022-11-20T06:06:08;6.30;99.90
11536;DHT22;5824;49.336;8.652;2022-11-20T06:08:34;6.40;99.90
11536;DHT22;5824;49.336;8.652;2022-11-20T06:11:07;6.30;99.90
11536;DHT22;5824;49.336;8.652;2022-11-20T06:13:33;6.40;99.90
11536;DHT22;5824;49.336;8.652;2022-11-20T06:15:59;6.30;99.90
11536;DHT22;5824;49.336;8.652;2022-11-20T06:18:26;6.20;99.90
11536;DHT22;5824;49.336;8.652;2022-11-20T06:21:06;6.20;99.90
11536;DHT22;5824;49.336;8.652;2022-11-20T06:23:33;6.20;99.90
11536;DHT22;5824;49.336;8.652;2022-11-20T06:26:07;6.20;99.90
11536;DHT22;5824;49.336;8.652;2022-11-20T06:28:34;6.20;99.90
11536;DHT22;5824;49.336;8.652;2022-11-20T06:30:59;6.30;99.90
11536;DHT22;5824;49.336;8.652;2022-11-20T06:33:25;6.40;99.90
11536;DHT22;5824;49.336;8.652;2022-11-20T06:35:51;6.50;99.90
11536;DHT22;5824;49.336;8.652;2022-11-20T06:38:16;6.50;99.90
11536;DHT22;5824;49.336;8.652;2022-11-20T06:40:42;6.50;99.90
11536;DHT22;5824;49.336;8.652;2022-11-20T06:43:11;6.70;99.90
11536;DHT22;5824;49.336;8.652;2022-11-20T06:45:36;6.70;99.90
11536;DHT22;5824;49.336;8.652;2022-11-20T06:48:02;6.70;99.90
11536;DHT22;5824;49.336;8.652;2022-11-20T06:50:28;6.70;99.90
11536;DHT22;5824;49.336;8.652;2022-11-20T06:52:53;6.60;99.90
11536;DHT22;5824;49.336;8.652;2022-11-20T06:55:19;6.60;99.90
11536;DHT22;5824;49.336;8.652;2022-11-20T06:57:44;6.60;99.90
11536;DHT22;5824;49.336;8.652;2022-11-20T07:00:10;6.70;99.90
11536;DHT22;5824;49.336;8.652;2022-11-20T07:02:36;6.70;99.90
11536;DHT22;5824;49.336;8.652;2022-11-20T07:05:02;6.70;99.90
11536;DHT22;5824;49.336;8.652;2022-11-20T07:07:27;6.70;99.90
11536;DHT22;5824;49.336;8.652;2022-11-20T07:09:53;6.80;99.90
11536;DHT22;5824;49.336;8.652;2022-11-20T07:12:18;6.70;99.90
11536;DHT22;5824;49.336;8.652;2022-11-20T07:14:44;6.70;99.90
11536;DHT22;5824;49.336;8.652;2022-11-20T07:17:09;6.60;99.90
11536;DHT22;5824;49.336;8.652;2022-11-20T07:19:35;6.60;99.90
11536;DHT22;5824;49.336;8.652;2022-11-20T07:22:00;6.60;99.90
11536;DHT22;5824;49.336;8.652;2022-11-20T07:24:26;6.60;99.90
11536;DHT22;5824;49.336;8.652;2022-11-20T07:26:51;6.60;99.90
11536;DHT22;5824;49.336;8.652;2022-11-20T07:29:17;6.60;99.90
11536;DHT22;5824;49.336;8.652;2022-11-20T07:31:43;6.70;99.90
11536;DHT22;5824;49.336;8.652;2022-11-20T07:34:08;6.60;99.90
11536;DHT22;5824;49.336;8.652;2022-11-20T07:36:34;6.60;99.90
11536;DHT22;5824;49.336;8.652;2022-11-20T07:39:00;6.70;99.90
11536;DHT22;5824;49.336;8.652;2022-11-20T07:41:26;6.70;99.90
11536;DHT22;5824;49.336;8.652;2022-11-20T07:43:52;6.70;99.90
11536;DHT22;5824;49.336;8.652;2022-11-20T07:46:18;6.80;99.90
11536;DHT22;5824;49.336;8.652;2022-11-20T07:48:43;6.90;99.90
11536;DHT22;5824;49.336;8.652;2022-11-20T07:51:09;7.00;99.90
11536;DHT22;5824;49.336;8.652;2022-11-20T07:53:36;7.00;99.90
11536;DHT22;5824;49.336;8.652;2022-11-20T07:56:02;7.00;99.90
11536;DHT22;5824;49.336;8.652;2022-11-20T07:58:31;7.10;99.90
11536;DHT22;5824;49.336;8.652;2022-11-20T08:01:02;7.20;99.90
11536;DHT22;5824;49.336;8.652;2022-11-20T08:03:28;7.50;99.90
11536;DHT22;5824;49.336;8.652;2022-11-20T08:05:53;7.60;99.90
11536;DHT22;5824;49.336;8.652;2022-11-20T08:08:19;7.80;99.90
11536;DHT22;5824;49.336;8.652;2022-11-20T08:10:45;8.10;99.90
11536;DHT22;5824;49.336;8.652;2022-11-20T08:13:10;8.00;99.90
11536;DHT22;5824;49.336;8.652;2022-11-20T08:15:54;8.10;99.90
11536;DHT22;5824;49.336;8.652;2022-11-20T08:18:20;8.20;99.90
11536;DHT22;5824;49.336;8.652;2022-11-20T08:20:45;8.20;99.90
11536;DHT22;5824;49.336;8.652;2022-11-20T08:23:11;8.00;99.90
11536;DHT22;5824;49.336;8.652;2022-11-20T08:25:37;8.00;99.90
11536;DHT22;5824;49.336;8.652;2022-11-20T08:28:08;7.80;99.90
11536;DHT22;5824;49.336;8.652;2022-11-20T08:30:35;7.80;99.90
11536;DHT22;5824;49.336;8.652;2022-11-20T08:33:07;7.80;99.90
11536;DHT22;5824;49.336;8.652;2022-11-20T08:35:36;7.80;99.90
11536;DHT22;5824;49.336;8.652;2022-11-20T08:38:04;7.70;99.90
11536;DHT22;5824;49.336;8.652;2022-11-20T08:40:30;7.90;99.90
11536;DHT22;5824;49.336;8.652;2022-11-20T08:42:56;8.10;99.90
11536;DHT22;5824;49.336;8.652;2022-11-20T08:45:22;8.20;99.90
11536;DHT22;5824;49.336;8.652;2022-11-20T08:47:47;8.10;99.90
11536;DHT22;5824;49.336;8.652;2022-11-20T08:50:15;8.10;99.90
11536;DHT22;5824;49.336;8.652;2022-11-20T08:52:41;8.10;99.90
11536;DHT22;5824;49.336;8.652;2022-11-20T08:55:07;8.10;99.90
11536;DHT22;5824;49.336;8.652;2022-11-20T08:57:34;8.00;99.90
11536;DHT22;5824;49.336;8.652;2022-11-20T09:00:00;8.00;99.90
11536;DHT22;5824;49.336;8.652;2022-11-20T09:02:26;8.00;99.90
11536;DHT22;5824;49.336;8.652;2022-11-20T09:04:52;8.00;99.90
11536;DHT22;5824;49.336;8.652;2022-11-20T09:07:18;8.00;99.90
11536;DHT22;5824;49.336;8.652;2022-11-20T09:09:44;8.00;99.90
11536;DHT22;5824;49.336;8.652;2022-11-20T09:12:09;8.00;99.90
11536;DHT22;5824;49.336;8.652;2022-11-20T09:14:35;8.00;99.90
11536;DHT22;5824;49.336;8.652;2022-11-20T09:17:01;7.90;99.90
11536;DHT22;5824;49.336;8.652;2022-11-20T09:19:26;7.90;99.90
11536;DHT22;5824;49.336;8.652;2022-11-20T09:21:52;7.90;99.90
11536;DHT22;5824;49.336;8.652;2022-11-20T09:24:18;8.00;99.90
11536;DHT22;5824;49.336;8.652;2022-11-20T09:26:44;8.10;99.90
11536;DHT22;5824;49.336;8.652;2022-11-20T09:29:09;8.20;99.90
11536;DHT22;5824;49.336;8.652;2022-11-20T09:31:35;8.20;99.90
11536;DHT22;5824;49.336;8.652;2022-11-20T09:34:00;8.30;99.90
11536;DHT22;5824;49.336;8.652;2022-11-20T09:36:26;8.30;99.90
11536;DHT22;5824;49.336;8.652;2022-11-20T09:38:52;8.40;99.90
11536;DHT22;5824;49.336;8.652;2022-11-20T09:46:49;8.60;99.90
11536;DHT22;5824;49.336;8.652;2022-11-20T09:51:57;8.60;99.90
11536;DHT22;5824;49.336;8.652;2022-11-20T09:54:36;8.60;99.90
11536;DHT22;5824;49.336;8.652;2022-11-20T09:57:10;8.50;99.90
11536;DHT22;5824;49.336;8.652;2022-11-20T10:00:03;8.50;99.90
11536;DHT22;5824;49.336;8.652;2022-11-20T10:02:37;8.50;99.90
11536;DHT22;5824;49.336;8.652;2022-11-20T10:05:11;8.60;99.90
11536;DHT22;5824;49.336;8.652;2022-11-20T10:07:51;8.50;99.90
11536;DHT22;5824;49.336;8.652;2022-11-20T10:10:29;8.40;99.90
11536;DHT22;5824;49.336;8.652;2022-11-20T10:18:11;8.50;99.90
11536;DHT22;5824;49.336;8.652;2022-11-20T10:20:48;8.60;99.90
11536;DHT22;5824;49.336;8.652;2022-11-20T10:26:32;8.60;99.90
11536;DHT22;5824;49.336;8.652;2022-11-20T10:31:38;8.60;99.90
11536;DHT22;5824;49.336;8.652;2022-11-20T10:34:24;8.50;99.90
11536;DHT22;5824;49.336;8.652;2022-11-20T10:37:09;8.50;99.90
11536;DHT22;5824;49.336;8.652;2022-11-20T10:40:06;8.60;99.90
11536;DHT22;5824;49.336;8.652;2022-11-20T10:42:56;8.60;99.90
11536;DHT22;5824;49.336;8.652;2022-11-20T10:48:14;8.90;99.90
11536;DHT22;5824;49.336;8.652;2022-11-20T10:50:54;8.80;99.90
11536;DHT22;5824;49.336;8.652;2022-11-20T10:56:34;8.90;99.90
11536;DHT22;5824;49.336;8.652;2022-11-20T11:01:44;8.80;99.90
11536;DHT22;5824;49.336;8.652;2022-11-20T11:07:02;9.00;99.90
11536;DHT22;5824;49.336;8.652;2022-11-20T11:09:35;9.10;99.90
11536;DHT22;5824;49.336;8.652;2022-11-20T11:12:06;9.30;99.20
11536;DHT22;5824;49.336;8.652;2022-11-20T11:14:59;11.10;88.70
11536;DHT22;5824;49.336;8.652;2022-11-20T11:17:30;11.90;39.60
11536;DHT22;5824;49.336;8.652;2022-11-20T11:22:24;12.70;40.20
11536;DHT22;5824;49.336;8.652;2022-11-20T11:24:54;13.00;12.10
11536;DHT22;5824;49.336;8.652;2022-11-20T11:27:19;13.00;14.50
11536;DHT22;5824;49.336;8.652;2022-11-20T11:29:46;13.30;12.30
11536;DHT22;5824;49.336;8.652;2022-11-20T11:32:19;13.30;17.30
11536;DHT22;5824;49.336;8.652;2022-11-20T11:35:05;12.90;15.20
11536;DHT22;5824;49.336;8.652;2022-11-20T11:37:38;12.30;18.70
11536;DHT22;5824;49.336;8.652;2022-11-20T11:40:05;12.00;29.10
11536;DHT22;5824;49.336;8.652;2022-11-20T11:42:31;11.90;34.40
11536;DHT22;5824;49.336;8.652;2022-11-20T11:44:59;11.70;16.90
11536;DHT22;5824;49.336;8.652;2022-11-20T11:55:29;11.80;17.00
11536;DHT22;5824;49.336;8.652;2022-11-20T12:06:31;11.30;11.80
11536;DHT22;5824;49.336;8.652;2022-11-20T12:09:10;11.40;8.10
11536;DHT22;5824;49.336;8.652;2022-11-20T12:11:51;11.30;1.00
11536;DHT22;5824;49.336;8.652;2022-11-20T12:16:53;11.50;1.00
11536;DHT22;5824;49.336;8.652;2022-11-20T12:19:21;11.60;1.00
11536;DHT22;5824;49.336;8.652;2022-11-20T12:22:04;11.70;1.00
11536;DHT22;5824;49.336;8.652;2022-11-20T12:28:10;12.70;1.00
11536;DHT22;5824;49.336;8.652;2022-11-20T12:36:16;19.90;1.00
11536;DHT22;5824;49.336;8.652;2022-11-20T12:39:03;16.40;1.00
11536;DHT22;5824;49.336;8.652;2022-11-20T12:56:03;13.40;1.00
11536;DHT22;5824;49.336;8.652;2022-11-20T12:58:40;12.70;1.00
11536;DHT22;5824;49.336;8.652;2022-11-20T13:01:34;12.60;1.00
11536;DHT22;5824;49.336;8.652;2022-11-20T13:07:05;12.60;1.00
11536;DHT22;5824;49.336;8.652;2022-11-20T13:09:32;12.60;1.00
11536;DHT22;5824;49.336;8.652;2022-11-20T13:14:44;12.40;1.00
11536;DHT22;5824;49.336;8.652;2022-11-20T13:17:16;12.20;1.00
11536;DHT22;5824;49.336;8.652;2022-11-20T13:19:54;12.00;1.00
11536;DHT22;5824;49.336;8.652;2022-11-20T13:22:52;11.90;1.00
11536;DHT22;5824;49.336;8.652;2022-11-20T13:27:51;11.70;1.00
11536;DHT22;5824;49.336;8.652;2022-11-20T13:30:20;11.90;1.00
11536;DHT22;5824;49.336;8.652;2022-11-20T13:32:54;12.90;1.00
11536;DHT22;5824;49.336;8.652;2022-11-20T13:35:29;13.50;1.00
11536;DHT22;5824;49.336;8.652;2022-11-20T13:38:02;13.60;1.00
11536;DHT22;5824;49.336;8.652;2022-11-20T13:40:28;13.70;1.00
11536;DHT22;5824;49.336;8.652;2022-11-20T13:45:27;13.60;1.00
11536;DHT22;5824;49.336;8.652;2022-11-20T13:47:53;13.50;1.00
11536;DHT22;5824;49.336;8.652;2022-11-20T13:50:25;12.70;1.00
11536;DHT22;5824;49.336;8.652;2022-11-20T14:01:18;13.10;1.00
11536;DHT22;5824;49.336;8.652;2022-11-20T14:03:45;12.00;1.00
11536;DHT22;5824;49.336;8.652;2022-11-20T14:06:27;12.00;1.00
11536;DHT22;5824;49.336;8.652;2022-11-20T14:08:54;11.90;1.00
11536;DHT22;5824;49.336;8.652;2022-11-20T14:11:21;12.00;1.00
11536;DHT22;5824;49.336;8.652;2022-11-20T14:14:02;11.80;1.00
11536;DHT22;5824;49.336;8.652;2022-11-20T14:16:33;11.70;1.00
11536;DHT22;5824;49.336;8.652;2022-11-20T14:21:45;11.60;1.00
11536;DHT22;5824;49.336;8.652;2022-11-20T14:24:12;11.40;1.00
11536;DHT22;5824;49.336;8.652;2022-11-20T14:26:44;11.20;1.00
11536;DHT22;5824;49.336;8.652;2022-11-20T14:29:16;11.10;1.00
11536;DHT22;5824;49.336;8.652;2022-11-20T14:31:42;10.90;1.00
11536;DHT22;5824;49.336;8.652;2022-11-20T14:34:16;10.80;1.00
11536;DHT22;5824;49.336;8.652;2022-11-20T14:36:43;10.70;1.00
11536;DHT22;5824;49.336;8.652;2022-11-20T14:39:11;10.60;1.00
11536;DHT22;5824;49.336;8.652;2022-11-20T14:41:37;10.60;1.00
11536;DHT22;5824;49.336;8.652;2022-11-20T14:44:04;10.50;1.00
11536;DHT22;5824;49.336;8.652;2022-11-20T14:46:30;10.40;1.00
11536;DHT22;5824;49.336;8.652;2022-11-20T14:48:57;10.40;1.00
11536;DHT22;5824;49.336;8.652;2022-11-20T14:53:53;10.20;1.00
11536;DHT22;5824;49.336;8.652;2022-11-20T14:56:23;10.20;1.00
11536;DHT22;5824;49.336;8.652;2022-11-20T14:58:58;10.00;1.00
11536;DHT22;5824;49.336;8.652;2022-11-20T15:01:28;10.10;1.00
11536;DHT22;5824;49.336;8.652;2022-11-20T15:04:05;10.00;1.00
11536;DHT22;5824;49.336;8.652;2022-11-20T15:06:32;9.90;1.00
11536;DHT22;5824;49.336;8.652;2022-11-20T15:08:57;9.80;1.00
11536;DHT22;5824;49.336;8.652;2022-11-20T15:11:28;9.70;1.00
11536;DHT22;5824;49.336;8.652;2022-11-20T15:13:55;9.70;1.00
11536;DHT22;5824;49.336;8.652;2022-11-20T15:16:22;9.60;1.00
11536;DHT22;5824;49.336;8.652;2022-11-20T15:18:49;9.50;1.00
11536;DHT22;5824;49.336;8.652;2022-11-20T15:21:17;9.50;1.00
11536;DHT22;5824;49.336;8.652;2022-11-20T15:23:43;9.40;1.00
11536;DHT22;5824;49.336;8.652;2022-11-20T15:26:11;9.40;1.00
11536;DHT22;5824;49.336;8.652;2022-11-20T15:28:41;9.50;1.00
11536;DHT22;5824;49.336;8.652;2022-11-20T15:31:11;9.30;1.00
11536;DHT22;5824;49.336;8.652;2022-11-20T15:33:36;9.20;1.00
11536;DHT22;5824;49.336;8.652;2022-11-20T15:36:02;9.20;1.00
11536;DHT22;5824;49.336;8.652;2022-11-20T15:38:28;9.20;1.00
11536;DHT22;5824;49.336;8.652;2022-11-20T15:40:53;9.20;1.00
11536;DHT22;5824;49.336;8.652;2022-11-20T15:43:19;9.20;1.00
11536;DHT22;5824;49.336;8.652;2022-11-20T15:45:47;9.10;1.00
11536;DHT22;5824;49.336;8.652;2022-11-20T15:48:20;9.10;1.00
11536;DHT22;5824;49.336;8.652;2022-11-20T15:53:29;9.10;1.00
11536;DHT22;5824;49.336;8.652;2022-11-20T15:55:55;9.10;1.00
11536;DHT22;5824;49.336;8.652;2022-11-20T15:58:20;9.00;1.00
11536;DHT22;5824;49.336;8.652;2022-11-20T16:00:48;9.00;1.00
11536;DHT22;5824;49.336;8.652;2022-11-20T16:03:14;9.10;1.00
11536;DHT22;5824;49.336;8.652;2022-11-20T16:05:40;9.10;1.00
11536;DHT22;5824;49.336;8.652;2022-11-20T16:08:06;9.00;1.00
11536;DHT22;5824;49.336;8.652;2022-11-20T16:10:32;9.00;1.00
11536;DHT22;5824;49.336;8.652;2022-11-20T16:12:58;9.00;1.00
11536;DHT22;5824;49.336;8.652;2022-11-20T16:15:44;9.00;1.00
11536;DHT22;5824;49.336;8.652;2022-11-20T16:18:12;9.00;1.00
11536;DHT22;5824;49.336;8.652;2022-11-20T16:20:38;9.00;1.00
11536;DHT22;5824;49.336;8.652;2022-11-20T16:23:04;9.00;1.00
11536;DHT22;5824;49.336;8.652;2022-11-20T16:25:30;9.00;1.00
11536;DHT22;5824;49.336;8.652;2022-11-20T16:27:55;9.00;1.00
11536;DHT22;5824;49.336;8.652;2022-11-20T16:30:21;9.00;1.00
11536;DHT22;5824;49.336;8.652;2022-11-20T16:32:47;8.90;1.00
11536;DHT22;5824;49.336;8.652;2022-11-20T16:35:13;8.80;1.00
11536;DHT22;5824;49.336;8.652;2022-11-20T16:37:38;8.80;1.00
11536;DHT22;5824;49.336;8.652;2022-11-20T16:40:05;8.80;1.00
11536;DHT22;5824;49.336;8.652;2022-11-20T16:42:34;8.90;1.00
11536;DHT22;5824;49.336;8.652;2022-11-20T16:45:00;8.90;1.00
11536;DHT22;5824;49.336;8.652;2022-11-20T16:47:25;8.90;1.00
11536;DHT22;5824;49.336;8.652;2022-11-20T16:49:51;8.90;1.00
11536;DHT22;5824;49.336;8.652;2022-11-20T16:52:17;9.00;1.00
11536;DHT22;5824;49.336;8.652;2022-11-20T16:54:42;9.00;1.00
11536;DHT22;5824;49.336;8.652;2022-11-20T16:57:08;9.00;1.00
11536;DHT22;5824;49.336;8.652;2022-11-20T16:59:33;9.00;1.00
11536;DHT22;5824;49.336;8.652;2022-11-20T17:01:59;9.00;1.00
11536;DHT22;5824;49.336;8.652;2022-11-20T17:04:24;9.00;1.00
11536;DHT22;5824;49.336;8.652;2022-11-20T17:06:50;9.00;1.00
11536;DHT22;5824;49.336;8.652;2022-11-20T17:09:16;9.00;1.00
11536;DHT22;5824;49.336;8.652;2022-11-20T17:11:41;9.00;1.00
11536;DHT22;5824;49.336;8.652;2022-11-20T17:14:07;8.90;1.00
11536;DHT22;5824;49.336;8.652;2022-11-20T17:16:34;8.90;1.00
11536;DHT22;5824;49.336;8.652;2022-11-20T17:19:00;8.80;1.00
11536;DHT22;5824;49.336;8.652;2022-11-20T17:21:26;8.70;1.00
11536;DHT22;5824;49.336;8.652;2022-11-20T17:23:52;8.50;1.00
11536;DHT22;5824;49.336;8.652;2022-11-20T17:26:19;8.30;1.00
11536;DHT22;5824;49.336;8.652;2022-11-20T17:28:58;8.10;1.00
11536;DHT22;5824;49.336;8.652;2022-11-20T17:31:25;8.10;1.00
11536;DHT22;5824;49.336;8.652;2022-11-20T17:33:52;8.00;1.00
11536;DHT22;5824;49.336;8.652;2022-11-20T17:36:18;8.10;1.00
11536;DHT22;5824;49.336;8.652;2022-11-20T17:38:44;8.20;1.00
11536;DHT22;5824;49.336;8.652;2022-11-20T17:41:18;8.20;1.00
11536;DHT22;5824;49.336;8.652;2022-11-20T17:43:44;8.10;1.00
11536;DHT22;5824;49.336;8.652;2022-11-20T17:46:16;8.00;1.00
11536;DHT22;5824;49.336;8.652;2022-11-20T17:48:42;7.80;1.00
11536;DHT22;5824;49.336;8.652;2022-11-20T17:51:14;7.80;1.00
11536;DHT22;5824;49.336;8.652;2022-11-20T17:53:42;7.80;1.00
11536;DHT22;5824;49.336;8.652;2022-11-20T17:56:08;7.80;1.00
11536;DHT22;5824;49.336;8.652;2022-11-20T17:58:53;8.00;1.00
11536;DHT22;5824;49.336;8.652;2022-11-20T18:01:19;8.00;1.00
11536;DHT22;5824;49.336;8.652;2022-11-20T18:03:45;7.90;1.00
11536;DHT22;5824;49.336;8.652;2022-11-20T18:06:19;7.90;1.00